Southeast Texas Regional Airport Beaumont,Port Arthur US
ICAO: KBPT
IATA: BPT
Category: Medium
Scheduled Services: Yes

Elevation: 15 ft
TransAlt. 18000 ft.

Airport Communications:
BEAUMONT APP/DEP:121.3
ATIS:126.3
CLNC DEL:118.3
CTAF:119.5
GND:121.9
MONTGOMERY CO RDO:122.2
BEAUMONT TWR:119.5
UNICOM:122.95

KBPT Zoom In..

Runways:

(A) RW 12 length 6750 ft width 150 ft
ILS 110.15 / hdg 116

(B) RW 16 length 5070 ft width 150 ft
---- / hdg 161

(C) RW 30 length 6750 ft width 150 ft
---- / hdg 296

(D) RW 34 length 5070 ft width 150 ft
---- / hdg 341

Location; KBPT
Day. 29 / Time. 18.53 Zulu
* Altimeter: 29.96
* Temperature: 17° c. 62.6°f.
* Wind from: 320° Speed 13 kn with Gusts up to 20 kn.
Dewpoint: 12° c.
Visibility: 10 Statute Miles.
Clouds: Scattered 1600 ft.

KBPT 291853Z 32013G20KT 10SM SCT016 17/12 A2996 RMK AO2 PK WND 33028/1810 SLP146 T01670122

Going to: --> -->


Wind From 320°
Speed 13 kn.

 
 
jpsmedia worldairports.se 2020   terms of use